createdAt,value
2023-05-08T00:00:37.055Z,21.10
2023-05-08T00:01:39.482Z,21.20
2023-05-08T00:02:42.630Z,21.10
2023-05-08T00:03:45.459Z,21.10
2023-05-08T00:04:48.364Z,21.20
2023-05-08T00:05:50.859Z,21.10
2023-05-08T00:06:53.352Z,21.10
2023-05-08T00:08:01.216Z,21.10
2023-05-08T00:09:03.695Z,21.10
2023-05-08T00:10:07.210Z,21.10
2023-05-08T00:11:09.853Z,21.10
2023-05-08T00:12:12.220Z,21.20
2023-05-08T00:13:14.696Z,21.10
2023-05-08T00:14:17.116Z,21.20
2023-05-08T00:15:19.829Z,21.10
2023-05-08T00:16:22.381Z,21.10
2023-05-08T00:17:25.058Z,21.10
2023-05-08T00:18:27.528Z,21.10
2023-05-08T00:19:29.915Z,21.10
2023-05-08T00:20:34.297Z,21.20
2023-05-08T00:21:36.772Z,21.10
2023-05-08T00:22:39.162Z,21.10
2023-05-08T00:23:41.617Z,21.20
2023-05-08T00:24:44.226Z,21.10
2023-05-08T00:25:46.637Z,21.20
2023-05-08T00:26:48.982Z,21.20
2023-05-08T00:27:51.804Z,21.20
2023-05-08T00:28:54.313Z,21.10
2023-05-08T00:29:57.468Z,21.10
2023-05-08T00:31:01.886Z,21.20
2023-05-08T00:32:04.428Z,21.20
2023-05-08T00:33:06.860Z,21.20
2023-05-08T00:34:09.581Z,21.30
2023-05-08T00:35:12.267Z,21.30
2023-05-08T00:36:15.736Z,21.30
2023-05-08T00:37:18.327Z,21.30
2023-05-08T00:38:20.942Z,21.30
2023-05-08T00:39:23.359Z,21.20
2023-05-08T00:40:25.947Z,21.20
2023-05-08T00:41:30.057Z,21.20
2023-05-08T00:42:32.482Z,21.20
2023-05-08T00:43:35.837Z,21.20
2023-05-08T00:44:40.137Z,21.20
2023-05-08T00:45:43.721Z,21.20
2023-05-08T00:46:46.760Z,21.20
2023-05-08T00:47:50.931Z,21.10
2023-05-08T00:48:53.721Z,21.10
2023-05-08T00:49:56.563Z,21.10
2023-05-08T00:51:00.178Z,21.10
2023-05-08T00:52:08.517Z,21.20
2023-05-08T00:53:12.532Z,21.10
2023-05-08T00:54:16.040Z,21.20
2023-05-08T00:55:19.558Z,21.10
2023-05-08T00:56:24.088Z,21.20
2023-05-08T00:57:29.596Z,21.10
2023-05-08T00:58:32.976Z,21.10
2023-05-08T00:59:36.642Z,21.10
2023-05-08T01:00:41.838Z,21.10
2023-05-08T01:01:44.942Z,21.10
2023-05-08T01:02:47.642Z,21.10
2023-05-08T01:03:51.108Z,21.10
2023-05-08T01:04:54.798Z,21.10
2023-05-08T01:05:57.552Z,21.10
2023-05-08T01:07:01.171Z,21.10
2023-05-08T01:08:03.952Z,21.10
2023-05-08T01:09:07.799Z,21.10
2023-05-08T01:10:11.698Z,21.10
2023-05-08T01:11:30.813Z,21.10
2023-05-08T01:13:06.849Z,21.10
2023-05-08T01:14:21.551Z,21.10
2023-05-08T01:15:33.041Z,21.10
2023-05-08T01:16:40.256Z,21.10
2023-05-08T01:18:02.529Z,21.10
2023-05-08T01:19:50.887Z,21.10
2023-05-08T01:21:10.666Z,21.10
2023-05-08T01:22:12.998Z,21.20
2023-05-08T01:23:43.500Z,21.10
2023-05-08T01:25:21.567Z,21.10
2023-05-08T01:26:51.348Z,21.10
2023-05-08T01:27:57.281Z,21.10
2023-05-08T01:29:36.564Z,21.10
2023-05-08T01:30:58.567Z,21.10
2023-05-08T01:32:27.467Z,21.10
2023-05-08T01:33:41.505Z,21.10
2023-05-08T01:35:07.821Z,21.10
2023-05-08T01:36:19.054Z,21.10
2023-05-08T01:37:28.298Z,21.10
2023-05-08T01:38:40.069Z,21.10
2023-05-08T01:40:02.444Z,21.10
2023-05-08T01:41:16.741Z,21.10
2023-05-08T01:42:30.681Z,21.10
2023-05-08T01:44:01.202Z,21.10
2023-05-08T01:45:09.515Z,21.10
2023-05-08T01:46:19.179Z,21.00
2023-05-08T01:47:25.972Z,21.10
2023-05-08T01:48:56.324Z,21.00
2023-05-08T01:50:07.187Z,21.00
2023-05-08T01:51:17.173Z,20.90
2023-05-08T01:52:33.616Z,20.70
2023-05-08T01:53:43.522Z,20.50
2023-05-08T01:54:55.710Z,20.50
2023-05-08T01:56:03.898Z,20.50
2023-05-08T01:57:09.473Z,20.40
2023-05-08T01:58:13.162Z,20.40
2023-05-08T01:59:19.639Z,20.30
2023-05-08T02:00:24.799Z,20.30
2023-05-08T02:01:32.083Z,20.20
2023-05-08T02:02:36.104Z,20.20
2023-05-08T02:03:41.652Z,20.20
2023-05-08T02:04:45.881Z,20.20
2023-05-08T02:05:51.583Z,20.20
2023-05-08T02:06:57.936Z,20.20
2023-05-08T02:08:03.268Z,20.20
2023-05-08T02:09:09.277Z,20.10
2023-05-08T02:10:14.050Z,20.10
2023-05-08T02:11:18.112Z,20.10
2023-05-08T02:12:22.421Z,20.10
2023-05-08T02:13:27.528Z,20.00
2023-05-08T02:14:32.112Z,20.00
2023-05-08T02:15:36.647Z,20.00
2023-05-08T02:16:42.208Z,20.10
2023-05-08T02:17:48.924Z,20.30
2023-05-08T02:18:56.263Z,20.30
2023-05-08T02:20:03.402Z,20.10
2023-05-08T02:21:12.381Z,20.10
2023-05-08T02:22:17.156Z,20.00
2023-05-08T02:23:22.240Z,20.00
2023-05-08T02:24:25.852Z,20.00
2023-05-08T02:25:30.469Z,20.10
2023-05-08T02:26:35.204Z,20.10
2023-05-08T02:27:39.526Z,20.20
2023-05-08T02:28:42.722Z,20.10
2023-05-08T02:29:45.191Z,20.20
2023-05-08T02:30:51.620Z,20.10
2023-05-08T02:31:56.362Z,20.10
2023-05-08T02:33:00.972Z,20.10
2023-05-08T02:34:05.820Z,20.10
2023-05-08T02:35:09.957Z,20.10
2023-05-08T02:36:16.092Z,20.10
2023-05-08T02:37:21.797Z,20.10
2023-05-08T02:38:26.403Z,20.00
2023-05-08T02:39:31.468Z,20.10
2023-05-08T02:40:34.278Z,20.00
2023-05-08T02:41:40.732Z,20.00
2023-05-08T02:42:44.888Z,20.00
2023-05-08T02:43:48.438Z,20.00
2023-05-08T02:44:51.517Z,20.00
2023-05-08T02:46:15.843Z,19.90
2023-05-08T02:47:23.856Z,19.90
2023-05-08T02:48:41.043Z,19.90
2023-05-08T02:49:54.342Z,19.90
2023-05-08T02:51:03.099Z,19.90
2023-05-08T02:52:28.763Z,19.80
2023-05-08T02:53:47.914Z,19.80
2023-05-08T02:55:22.520Z,19.80
2023-05-08T02:56:53.556Z,19.70
2023-05-08T02:58:11.755Z,19.80
2023-05-08T02:59:18.984Z,20.00
2023-05-08T03:00:27.621Z,20.00
2023-05-08T03:01:44.251Z,20.00
2023-05-08T03:03:10.824Z,20.00
2023-05-08T03:04:24.400Z,20.00
2023-05-08T03:05:32.614Z,20.00
2023-05-08T03:06:40.395Z,20.10
2023-05-08T03:07:45.256Z,20.20
2023-05-08T03:08:50.491Z,20.20
2023-05-08T03:10:00.471Z,20.20
2023-05-08T03:11:22.943Z,20.20
2023-05-08T03:12:28.958Z,20.20
2023-05-08T03:13:34.442Z,20.30
2023-05-08T03:14:45.273Z,20.20
2023-05-08T03:15:57.484Z,20.20
2023-05-08T03:17:02.057Z,20.10
2023-05-08T03:18:10.416Z,20.00
2023-05-08T03:19:24.305Z,20.00
2023-05-08T03:20:32.770Z,20.00
2023-05-08T03:21:37.328Z,19.90
2023-05-08T03:22:42.008Z,19.90
2023-05-08T03:23:46.699Z,19.90
2023-05-08T03:24:50.293Z,19.90
2023-05-08T03:25:53.539Z,19.90
2023-05-08T03:26:56.928Z,19.90
2023-05-08T03:28:00.034Z,19.90
2023-05-08T03:29:05.069Z,19.90
2023-05-08T03:30:10.528Z,19.80
2023-05-08T03:31:20.841Z,19.80
2023-05-08T03:32:26.195Z,19.80
2023-05-08T03:33:29.617Z,19.80
2023-05-08T03:34:34.369Z,19.80
2023-05-08T03:35:38.204Z,19.80
2023-05-08T03:36:42.086Z,19.80
2023-05-08T03:37:44.731Z,19.80
2023-05-08T03:38:47.457Z,19.80
2023-05-08T03:39:51.888Z,19.80
2023-05-08T03:40:54.430Z,19.70
2023-05-08T03:41:57.664Z,19.80
2023-05-08T03:43:01.933Z,19.90
2023-05-08T03:44:05.105Z,19.90
2023-05-08T03:45:10.754Z,20.00
2023-05-08T03:46:13.991Z,19.90
2023-05-08T03:47:18.689Z,20.00
2023-05-08T03:48:22.712Z,20.00
2023-05-08T03:49:26.508Z,20.00
2023-05-08T03:50:29.439Z,20.00
2023-05-08T03:51:32.458Z,20.00
2023-05-08T03:52:35.072Z,20.00
2023-05-08T03:53:37.538Z,20.20
2023-05-08T03:54:40.644Z,20.30
2023-05-08T03:55:43.512Z,20.50
2023-05-08T03:56:47.838Z,20.60
2023-05-08T03:58:06.251Z,20.70
2023-05-08T03:59:17.291Z,20.80
2023-05-08T04:00:27.472Z,20.90
2023-05-08T04:01:41.822Z,20.90
2023-05-08T04:02:52.417Z,21.00
2023-05-08T04:04:16.332Z,21.00
2023-05-08T04:05:41.545Z,21.10
2023-05-08T04:06:52.841Z,21.10
2023-05-08T04:08:15.750Z,21.20
2023-05-08T04:09:31.355Z,21.20
2023-05-08T04:11:02.399Z,21.20
2023-05-08T04:12:15.007Z,21.30
2023-05-08T04:13:27.153Z,21.40
2023-05-08T04:14:43.722Z,21.40
2023-05-08T04:15:52.240Z,21.40
2023-05-08T04:17:05.947Z,21.40
2023-05-08T04:18:12.732Z,21.40
2023-05-08T04:19:24.121Z,21.40
2023-05-08T04:20:29.304Z,21.40
2023-05-08T04:21:36.428Z,21.40
2023-05-08T04:22:41.218Z,21.50
2023-05-08T04:23:46.003Z,21.50
2023-05-08T04:24:50.722Z,21.50
2023-05-08T04:25:55.759Z,21.50
2023-05-08T04:26:59.485Z,21.50
2023-05-08T04:28:04.116Z,21.50
2023-05-08T04:29:07.861Z,21.50
2023-05-08T04:30:11.674Z,21.50
2023-05-08T04:31:16.951Z,21.50
2023-05-08T04:32:21.627Z,21.50
2023-05-08T04:33:24.854Z,21.50
2023-05-08T04:34:29.097Z,21.50
2023-05-08T04:35:36.816Z,21.60
2023-05-08T04:36:39.662Z,21.60
2023-05-08T04:37:44.158Z,21.60
2023-05-08T04:38:46.964Z,21.60
2023-05-08T04:39:53.573Z,21.60
2023-05-08T04:40:56.438Z,21.60
2023-05-08T04:42:03.312Z,21.60
2023-05-08T04:43:07.462Z,21.60
2023-05-08T04:44:10.097Z,21.60
2023-05-08T04:45:13.039Z,21.60
2023-05-08T04:46:16.362Z,21.60
2023-05-08T04:47:19.087Z,21.70
2023-05-08T04:48:21.595Z,21.70
2023-05-08T04:49:24.061Z,21.50
2023-05-08T04:50:26.674Z,21.20
2023-05-08T04:51:29.469Z,21.30
2023-05-08T04:52:31.968Z,21.40
2023-05-08T04:53:34.461Z,21.40
2023-05-08T04:54:37.182Z,21.50
2023-05-08T04:55:40.380Z,21.50
2023-05-08T04:58:00.106Z,21.60
2023-05-08T05:03:00.234Z,21.70
2023-05-08T05:04:03.435Z,21.70
2023-05-08T05:06:27.738Z,21.70
2023-05-08T05:07:35.059Z,21.70
2023-05-08T05:08:39.100Z,21.80
2023-05-08T05:13:44.283Z,21.90
2023-05-08T05:14:47.386Z,21.90
2023-05-08T05:15:54.863Z,21.90
2023-05-08T05:17:00.839Z,21.80
2023-05-08T05:18:04.010Z,21.70
2023-05-08T05:19:08.124Z,21.60
2023-05-08T05:20:12.853Z,21.60
2023-05-08T05:21:15.608Z,21.60
2023-05-08T05:22:20.751Z,21.60
2023-05-08T05:23:23.254Z,21.60
2023-05-08T05:24:25.966Z,21.60
2023-05-08T05:25:28.610Z,21.70
2023-05-08T05:26:31.701Z,21.70
2023-05-08T05:27:37.374Z,21.70
2023-05-08T05:28:41.826Z,21.70
2023-05-08T05:29:44.539Z,21.70
2023-05-08T05:30:48.541Z,21.80
2023-05-08T05:31:51.214Z,21.80
2023-05-08T05:32:54.953Z,21.70
2023-05-08T05:36:31.999Z,21.80
2023-05-08T05:37:34.433Z,21.80
2023-05-08T05:38:37.075Z,21.90
2023-05-08T05:39:42.030Z,21.90
2023-05-08T05:40:45.126Z,21.90
2023-05-08T05:41:47.922Z,21.90
2023-05-08T05:42:51.078Z,21.90
2023-05-08T05:43:54.823Z,21.90
2023-05-08T05:44:57.856Z,21.90
2023-05-08T05:46:08.998Z,21.90
2023-05-08T05:47:12.646Z,21.90
2023-05-08T05:48:16.989Z,21.90
2023-05-08T05:49:21.882Z,21.90
2023-05-08T05:50:26.964Z,21.80
2023-05-08T05:51:30.506Z,21.70
2023-05-08T05:52:33.281Z,21.70
2023-05-08T05:53:39.965Z,21.70
2023-05-08T05:54:43.155Z,21.60
2023-05-08T05:55:46.311Z,21.60
2023-05-08T05:56:49.049Z,21.60
2023-05-08T05:57:51.541Z,21.70
2023-05-08T05:58:54.281Z,21.70
2023-05-08T05:59:56.891Z,21.70
2023-05-08T06:01:01.472Z,21.80
2023-05-08T06:02:06.726Z,21.80
2023-05-08T06:03:19.405Z,21.80
2023-05-08T06:06:55.340Z,21.80
2023-05-08T06:07:57.893Z,21.90
2023-05-08T06:09:00.679Z,22.00
2023-05-08T06:10:03.605Z,22.00
2023-05-08T06:11:06.192Z,21.90
2023-05-08T06:12:08.820Z,21.90
2023-05-08T06:13:11.648Z,21.90
2023-05-08T06:14:14.110Z,21.90
2023-05-08T06:15:16.721Z,21.90
2023-05-08T06:16:23.237Z,21.90
2023-05-08T06:17:26.152Z,22.00
2023-05-08T06:18:28.681Z,22.00
2023-05-08T06:19:31.265Z,22.00
2023-05-08T06:20:33.894Z,22.00
2023-05-08T06:21:36.672Z,22.00
2023-05-08T06:22:40.134Z,22.00
2023-05-08T06:23:42.944Z,22.00
2023-05-08T06:24:46.611Z,22.00
2023-05-08T06:25:49.560Z,22.00
2023-05-08T06:26:51.957Z,22.00
2023-05-08T06:27:54.448Z,22.00
2023-05-08T06:28:57.053Z,22.00
2023-05-08T06:29:59.642Z,22.00
2023-05-08T06:31:02.153Z,22.10
2023-05-08T06:32:05.051Z,22.00
2023-05-08T06:33:14.849Z,22.00
2023-05-08T06:35:33.887Z,22.00
2023-05-08T06:36:37.346Z,21.80
2023-05-08T06:37:40.780Z,21.70
2023-05-08T06:38:45.450Z,21.50
2023-05-08T06:39:54.698Z,21.50
2023-05-08T06:41:07.085Z,21.40
2023-05-08T06:42:12.118Z,21.50
2023-05-08T06:43:16.015Z,21.50
2023-05-08T06:44:18.530Z,21.60
2023-05-08T06:45:21.184Z,21.70
2023-05-08T06:46:23.779Z,21.80
2023-05-08T06:47:26.342Z,21.80
2023-05-08T06:48:29.216Z,21.80
2023-05-08T06:49:32.548Z,21.80
2023-05-08T06:50:37.976Z,21.90
2023-05-08T06:51:40.748Z,21.90
2023-05-08T06:52:43.194Z,21.90
2023-05-08T06:53:46.495Z,21.90
2023-05-08T06:54:48.997Z,21.90
2023-05-08T06:55:51.773Z,22.00
2023-05-08T06:56:54.679Z,22.00
2023-05-08T06:57:57.203Z,22.00
2023-05-08T07:01:33.512Z,22.00
2023-05-08T07:03:52.509Z,22.10
2023-05-08T07:04:54.994Z,22.10
2023-05-08T07:05:57.611Z,22.10
2023-05-08T07:07:00.841Z,22.10
2023-05-08T07:08:03.370Z,22.10
2023-05-08T07:09:05.896Z,22.10
2023-05-08T07:10:08.793Z,22.10
2023-05-08T07:11:11.431Z,22.10
2023-05-08T07:12:16.623Z,22.10
2023-05-08T07:13:21.935Z,22.10
2023-05-08T07:14:24.724Z,22.10
2023-05-08T07:15:27.325Z,22.10
2023-05-08T07:16:29.994Z,22.10
2023-05-08T07:17:32.874Z,22.10
2023-05-08T07:18:35.614Z,22.10
2023-05-08T07:19:38.501Z,22.20
2023-05-08T07:20:41.954Z,22.20
2023-05-08T07:21:46.162Z,22.20
2023-05-08T07:22:48.585Z,22.20
2023-05-08T07:23:53.697Z,22.20
2023-05-08T07:24:56.722Z,22.20
2023-05-08T07:25:59.469Z,22.20
2023-05-08T07:27:03.145Z,22.20
2023-05-08T07:28:05.829Z,22.20
2023-05-08T07:29:08.384Z,22.20
2023-05-08T07:30:12.309Z,22.20
2023-05-08T07:31:15.853Z,22.20
2023-05-08T07:32:18.404Z,22.20
2023-05-08T07:33:20.851Z,22.10
2023-05-08T07:34:23.295Z,22.00
2023-05-08T07:35:25.695Z,21.90
2023-05-08T07:36:28.289Z,21.90
2023-05-08T07:37:30.772Z,21.90
2023-05-08T07:38:33.183Z,21.80
2023-05-08T07:39:35.505Z,21.80
2023-05-08T07:40:37.867Z,21.70
2023-05-08T07:41:41.046Z,21.70
2023-05-08T07:42:45.201Z,21.70
2023-05-08T07:43:48.602Z,21.70
2023-05-08T07:44:54.994Z,21.60
2023-05-08T07:45:58.558Z,21.60
2023-05-08T07:47:01.670Z,21.50
2023-05-08T07:48:04.472Z,21.40
2023-05-08T07:49:07.667Z,21.30
2023-05-08T07:50:10.445Z,21.30
2023-05-08T07:51:13.455Z,21.30
2023-05-08T07:52:15.882Z,21.20
2023-05-08T07:53:18.605Z,21.20
2023-05-08T07:54:21.582Z,21.30
2023-05-08T07:55:24.030Z,21.30
2023-05-08T07:56:27.348Z,21.20
2023-05-08T07:57:43.338Z,21.10
2023-05-08T07:58:47.839Z,21.10
2023-05-08T07:59:50.146Z,21.10
2023-05-08T08:00:52.824Z,21.00
2023-05-08T08:01:55.289Z,21.00
2023-05-08T08:02:57.960Z,21.00
2023-05-08T08:04:00.804Z,20.90
2023-05-08T08:05:04.191Z,20.90
2023-05-08T08:06:06.806Z,20.90
2023-05-08T08:07:09.606Z,20.90
2023-05-08T08:08:12.010Z,20.90
2023-05-08T08:09:14.346Z,20.90
2023-05-08T08:10:17.827Z,20.90
2023-05-08T08:11:20.647Z,20.80
2023-05-08T08:12:23.807Z,20.90
2023-05-08T08:13:26.624Z,20.90
2023-05-08T08:14:29.595Z,20.80
2023-05-08T08:15:31.978Z,20.80
2023-05-08T08:16:34.368Z,20.80
2023-05-08T08:17:37.650Z,20.90
2023-05-08T08:18:40.267Z,20.90
2023-05-08T08:19:42.590Z,21.00
2023-05-08T08:20:45.058Z,21.00
2023-05-08T08:21:47.518Z,21.00
2023-05-08T08:22:49.928Z,20.90
2023-05-08T08:23:52.384Z,20.90
2023-05-08T08:24:57.828Z,20.90
2023-05-08T08:26:00.309Z,20.90
2023-05-08T08:27:04.144Z,20.90
2023-05-08T08:28:07.046Z,20.80
2023-05-08T08:29:09.525Z,20.80
2023-05-08T08:30:16.854Z,20.80
2023-05-08T08:31:20.235Z,20.70
2023-05-08T08:32:24.395Z,20.70
2023-05-08T08:33:29.953Z,20.70
2023-05-08T08:34:35.225Z,20.60
2023-05-08T08:35:38.365Z,20.70
2023-05-08T08:36:40.865Z,20.80
2023-05-08T08:39:21.406Z,20.70
2023-05-08T08:40:25.403Z,20.90
2023-05-08T08:41:28.162Z,20.80
2023-05-08T08:42:31.649Z,20.70
2023-05-08T08:43:35.246Z,20.70
2023-05-08T08:44:39.250Z,20.80
2023-05-08T08:45:42.442Z,20.80
2023-05-08T08:46:52.946Z,20.90
2023-05-08T08:48:00.457Z,20.90
2023-05-08T08:49:05.392Z,21.00
2023-05-08T08:50:13.616Z,21.00
2023-05-08T08:51:28.932Z,21.00
2023-05-08T08:52:35.438Z,20.90
2023-05-08T08:53:44.156Z,20.90
2023-05-08T08:54:49.221Z,20.90
2023-05-08T08:55:55.590Z,21.00
2023-05-08T08:57:01.860Z,21.10
2023-05-08T08:58:39.036Z,21.10
2023-05-08T08:59:44.323Z,21.10
2023-05-08T09:00:49.017Z,21.20
2023-05-08T09:01:56.338Z,21.20
2023-05-08T09:02:59.582Z,21.20
2023-05-08T09:04:02.821Z,21.10
2023-05-08T09:05:06.149Z,21.10
2023-05-08T09:06:09.502Z,21.10
2023-05-08T09:07:12.401Z,21.20
2023-05-08T09:08:15.208Z,21.10
2023-05-08T09:09:17.831Z,21.20
2023-05-08T09:10:22.041Z,21.20
2023-05-08T09:11:24.882Z,21.10
2023-05-08T09:12:27.302Z,21.10
2023-05-08T09:13:30.476Z,21.00
2023-05-08T09:14:34.360Z,21.00
2023-05-08T09:15:38.263Z,21.00
2023-05-08T09:16:41.021Z,21.00
2023-05-08T09:17:43.495Z,21.00
2023-05-08T09:18:46.102Z,21.00
2023-05-08T09:19:50.092Z,21.00
2023-05-08T09:20:52.894Z,21.10
2023-05-08T09:21:58.671Z,21.10
2023-05-08T09:23:04.439Z,21.10
2023-05-08T09:24:06.916Z,21.10
2023-05-08T09:25:09.955Z,21.00
2023-05-08T09:26:47.259Z,21.00
2023-05-08T09:27:50.025Z,21.00
2023-05-08T09:29:08.837Z,21.00
2023-05-08T09:30:14.592Z,21.00
2023-05-08T09:31:17.144Z,21.00
2023-05-08T09:32:19.874Z,21.00
2023-05-08T09:33:23.854Z,21.00
2023-05-08T09:34:30.904Z,21.20
2023-05-08T09:35:37.578Z,21.20
2023-05-08T09:36:41.931Z,21.20
2023-05-08T09:37:44.524Z,21.20
2023-05-08T09:38:47.094Z,21.20
2023-05-08T09:39:49.930Z,21.30
2023-05-08T09:41:10.012Z,21.20
2023-05-08T09:42:12.611Z,21.20
2023-05-08T09:43:15.041Z,21.20
2023-05-08T09:44:17.546Z,21.20
2023-05-08T09:45:28.346Z,21.20
2023-05-08T09:46:31.960Z,21.10
2023-05-08T09:47:37.414Z,21.10
2023-05-08T09:48:40.069Z,21.00
2023-05-08T09:50:02.508Z,21.20
2023-05-08T09:51:07.619Z,21.30
2023-05-08T09:52:15.867Z,21.30
2023-05-08T09:53:18.471Z,21.30
2023-05-08T09:54:21.084Z,21.40
2023-05-08T09:55:24.437Z,21.40
2023-05-08T09:56:34.549Z,21.40
2023-05-08T09:57:39.442Z,21.50
2023-05-08T09:58:44.061Z,21.40
2023-05-08T09:59:47.549Z,21.40
2023-05-08T10:00:50.040Z,21.40
2023-05-08T10:01:53.400Z,21.40
2023-05-08T10:03:01.526Z,21.40
2023-05-08T10:04:06.406Z,21.40
2023-05-08T10:05:34.655Z,21.40
2023-05-08T10:06:37.528Z,21.40
2023-05-08T10:07:41.384Z,21.40
2023-05-08T10:08:45.229Z,21.40
2023-05-08T10:10:01.470Z,21.30
2023-05-08T10:11:24.214Z,21.20
2023-05-08T10:12:30.625Z,21.20
2023-05-08T10:13:33.167Z,21.20
2023-05-08T10:14:35.999Z,21.20
2023-05-08T10:15:41.747Z,21.30
2023-05-08T10:16:46.743Z,21.40
2023-05-08T10:18:01.022Z,21.50
2023-05-08T10:19:09.365Z,21.50
2023-05-08T10:20:15.808Z,21.60
2023-05-08T10:21:20.351Z,21.50
2023-05-08T10:22:26.284Z,21.40
2023-05-08T10:23:29.422Z,21.30
2023-05-08T10:24:38.593Z,21.30
2023-05-08T10:25:46.166Z,21.20
2023-05-08T10:27:13.875Z,21.20
2023-05-08T10:28:31.957Z,21.20
2023-05-08T10:29:44.607Z,21.10
2023-05-08T10:30:50.722Z,21.10
2023-05-08T10:31:58.652Z,21.10
2023-05-08T10:33:09.450Z,21.10
2023-05-08T10:34:19.059Z,21.00
2023-05-08T10:35:22.783Z,21.00
2023-05-08T10:36:27.391Z,21.10
2023-05-08T10:37:31.193Z,21.00
2023-05-08T10:38:34.186Z,21.10
2023-05-08T10:39:37.276Z,21.10
2023-05-08T10:40:40.140Z,21.10
2023-05-08T10:41:44.874Z,21.10
2023-05-08T10:42:48.997Z,21.10
2023-05-08T10:43:52.028Z,21.10
2023-05-08T10:44:55.478Z,21.10
2023-05-08T10:45:59.713Z,21.20
2023-05-08T10:47:05.563Z,21.20
2023-05-08T10:48:29.353Z,21.10
2023-05-08T10:49:36.703Z,21.20
2023-05-08T10:50:45.923Z,21.20
2023-05-08T10:51:55.796Z,21.30
2023-05-08T10:53:17.636Z,21.30
2023-05-08T10:54:38.712Z,21.30
2023-05-08T10:55:44.781Z,21.20
2023-05-08T10:56:49.326Z,21.30
2023-05-08T10:58:17.322Z,21.20
2023-05-08T10:59:21.187Z,21.30
2023-05-08T11:00:23.681Z,21.30
2023-05-08T11:01:26.773Z,21.30
2023-05-08T11:02:32.133Z,21.30
2023-05-08T11:03:45.691Z,21.40
2023-05-08T11:04:48.469Z,21.40
2023-05-08T11:05:52.471Z,21.40
2023-05-08T11:06:55.184Z,21.40
2023-05-08T11:07:59.549Z,21.40
2023-05-08T11:09:02.067Z,21.40
2023-05-08T11:10:13.732Z,21.40
2023-05-08T11:11:28.046Z,21.50
2023-05-08T11:12:31.618Z,21.50
2023-05-08T11:13:36.631Z,21.50
2023-05-08T11:14:42.533Z,21.50
2023-05-08T11:15:50.737Z,21.60
2023-05-08T11:17:01.720Z,21.60
2023-05-08T11:18:06.929Z,21.60
2023-05-08T11:19:19.952Z,21.60
2023-05-08T11:20:42.262Z,21.60
2023-05-08T11:22:18.933Z,21.60
2023-05-08T11:23:26.032Z,21.70
2023-05-08T11:24:38.328Z,21.70
2023-05-08T11:25:44.928Z,21.60
2023-05-08T11:26:50.160Z,21.60
2023-05-08T11:27:52.482Z,21.70
2023-05-08T11:28:58.254Z,21.70
2023-05-08T11:30:35.083Z,21.70
2023-05-08T11:31:51.883Z,21.70
2023-05-08T11:32:59.739Z,21.70
2023-05-08T11:34:03.691Z,21.70
2023-05-08T11:35:11.180Z,21.70
2023-05-08T11:36:19.181Z,21.70
2023-05-08T11:37:24.242Z,21.80
2023-05-08T11:38:38.153Z,21.70
2023-05-08T11:39:40.555Z,21.70
2023-05-08T11:41:00.818Z,21.70
2023-05-08T11:42:33.828Z,21.70
2023-05-08T11:43:54.518Z,21.70
2023-05-08T11:45:10.847Z,21.70
2023-05-08T11:46:21.033Z,21.70
2023-05-08T11:47:30.598Z,21.70
2023-05-08T11:48:34.081Z,21.70
2023-05-08T11:49:37.175Z,21.70
2023-05-08T11:50:39.959Z,21.60
2023-05-08T11:51:45.038Z,21.70
2023-05-08T11:52:51.740Z,21.70
2023-05-08T11:53:54.174Z,21.70
2023-05-08T11:54:56.672Z,21.70
2023-05-08T11:56:00.438Z,21.80
2023-05-08T11:57:02.969Z,21.80
2023-05-08T11:58:17.771Z,21.80
2023-05-08T11:59:21.373Z,21.80
2023-05-08T12:00:23.949Z,21.80
2023-05-08T12:01:26.358Z,21.80
2023-05-08T12:02:43.020Z,21.90
2023-05-08T12:03:46.344Z,21.80
2023-05-08T12:04:49.115Z,21.90
2023-05-08T12:05:55.394Z,21.80
2023-05-08T12:06:58.899Z,21.90
2023-05-08T12:08:01.467Z,21.90
2023-05-08T12:09:10.610Z,21.90
2023-05-08T12:10:14.956Z,21.90
2023-05-08T12:11:26.722Z,21.90
2023-05-08T12:12:41.325Z,21.90
2023-05-08T12:13:51.625Z,22.00
2023-05-08T12:14:54.176Z,21.90
2023-05-08T12:15:58.655Z,21.90
2023-05-08T12:17:02.712Z,21.90
2023-05-08T12:18:05.296Z,21.90
2023-05-08T12:19:12.410Z,21.90
2023-05-08T12:20:17.796Z,22.00
2023-05-08T12:21:21.599Z,22.00
2023-05-08T12:22:24.080Z,21.90
2023-05-08T12:23:29.620Z,21.90
2023-05-08T12:24:32.164Z,21.90
2023-05-08T12:25:34.544Z,21.90
2023-05-08T12:26:38.205Z,22.00
2023-05-08T12:27:40.966Z,22.10
2023-05-08T12:28:46.844Z,22.10
2023-05-08T12:29:50.110Z,22.10
2023-05-08T12:30:54.269Z,22.00
2023-05-08T12:31:56.907Z,22.10
2023-05-08T12:33:00.684Z,22.10
2023-05-08T12:34:04.902Z,22.10
2023-05-08T12:35:09.914Z,22.10
2023-05-08T12:36:13.702Z,22.00
2023-05-08T12:37:28.656Z,22.00
2023-05-08T12:38:31.226Z,22.10
2023-05-08T12:39:37.551Z,22.00
2023-05-08T12:40:55.715Z,22.00
2023-05-08T12:42:00.128Z,22.00
2023-05-08T12:43:04.078Z,22.00
2023-05-08T12:44:19.892Z,22.00
2023-05-08T12:45:24.836Z,22.00
2023-05-08T12:46:28.050Z,22.00
2023-05-08T12:47:30.787Z,21.90
2023-05-08T12:48:33.260Z,22.00
2023-05-08T12:49:37.336Z,22.00
2023-05-08T12:50:41.828Z,22.00
2023-05-08T12:51:47.189Z,22.00
2023-05-08T12:52:51.494Z,21.90
2023-05-08T12:53:55.115Z,21.90
2023-05-08T12:54:57.599Z,22.00
2023-05-08T12:56:04.524Z,21.90
2023-05-08T12:57:11.556Z,22.00
2023-05-08T12:58:15.538Z,22.00
2023-05-08T12:59:28.854Z,22.00
2023-05-08T13:00:53.861Z,22.00
2023-05-08T13:01:57.129Z,22.00
2023-05-08T13:02:59.772Z,22.00
2023-05-08T13:04:03.344Z,21.90
2023-05-08T13:05:06.391Z,21.90
2023-05-08T13:06:22.482Z,21.90
2023-05-08T13:07:24.930Z,22.00
2023-05-08T13:08:35.652Z,22.00
2023-05-08T13:09:38.723Z,22.00
2023-05-08T13:10:53.814Z,22.00
2023-05-08T13:11:57.037Z,21.90
2023-05-08T13:12:59.408Z,22.00
2023-05-08T13:14:01.915Z,22.00
2023-05-08T13:15:05.747Z,22.00
2023-05-08T13:16:08.405Z,22.00
2023-05-08T13:17:10.967Z,22.00
2023-05-08T13:18:13.802Z,21.90
2023-05-08T13:19:16.318Z,21.90
2023-05-08T13:20:18.778Z,22.00
2023-05-08T13:21:21.168Z,22.00
2023-05-08T13:22:26.572Z,22.00
2023-05-08T13:23:29.969Z,22.00
2023-05-08T13:24:32.337Z,22.00
2023-05-08T13:25:36.508Z,22.00
2023-05-08T13:26:38.932Z,22.00
2023-05-08T13:27:41.752Z,22.00
2023-05-08T13:28:44.180Z,22.00
2023-05-08T13:29:46.553Z,22.00
2023-05-08T13:30:48.913Z,22.00
2023-05-08T13:31:51.489Z,22.00
2023-05-08T13:32:54.775Z,22.10
2023-05-08T13:33:57.162Z,22.00
2023-05-08T13:35:01.074Z,21.80
2023-05-08T13:36:04.557Z,21.70
2023-05-08T13:37:07.133Z,21.80
2023-05-08T13:38:09.749Z,21.70
2023-05-08T13:39:12.387Z,21.80
2023-05-08T13:40:17.287Z,21.80
2023-05-08T13:41:21.050Z,21.70
2023-05-08T13:42:23.434Z,21.80
2023-05-08T13:43:25.907Z,21.80
2023-05-08T13:44:28.306Z,21.70
2023-05-08T13:45:32.409Z,21.80
2023-05-08T13:46:34.995Z,21.90
2023-05-08T13:47:37.602Z,22.00
2023-05-08T13:48:40.333Z,22.00
2023-05-08T13:49:44.171Z,21.90
2023-05-08T13:50:46.689Z,21.80
2023-05-08T13:51:56.517Z,21.70
2023-05-08T13:52:59.527Z,21.90
2023-05-08T13:54:01.974Z,21.90
2023-05-08T13:55:10.182Z,22.00
2023-05-08T13:56:13.089Z,22.00
2023-05-08T13:57:15.888Z,22.00
2023-05-08T13:58:18.291Z,22.10
2023-05-08T13:59:20.776Z,22.10
2023-05-08T14:00:23.606Z,22.10
2023-05-08T14:01:27.809Z,22.10
2023-05-08T14:02:30.512Z,22.10
2023-05-08T14:03:33.263Z,21.90
2023-05-08T14:04:36.297Z,22.00
2023-05-08T14:05:39.097Z,22.00
2023-05-08T14:06:42.009Z,22.10
2023-05-08T14:07:45.542Z,22.10
2023-05-08T14:08:51.476Z,22.10
2023-05-08T14:09:55.453Z,22.00
2023-05-08T14:10:58.191Z,22.00
2023-05-08T14:12:01.190Z,22.00
2023-05-08T14:13:03.938Z,21.90
2023-05-08T14:14:06.430Z,22.00
2023-05-08T14:15:09.963Z,21.90
2023-05-08T14:16:14.378Z,21.80
2023-05-08T14:17:16.836Z,21.90
2023-05-08T14:18:19.205Z,22.00
2023-05-08T14:19:21.581Z,22.00
2023-05-08T14:20:23.992Z,22.10
2023-05-08T14:21:27.778Z,22.10
2023-05-08T14:22:30.742Z,22.00
2023-05-08T14:23:33.214Z,22.10
2023-05-08T14:24:35.832Z,22.10
2023-05-08T14:25:38.980Z,22.20
2023-05-08T14:26:42.279Z,22.20
2023-05-08T14:27:45.038Z,22.00
2023-05-08T14:28:47.618Z,21.80
2023-05-08T14:29:50.373Z,21.80
2023-05-08T14:30:52.763Z,21.80
2023-05-08T14:31:55.458Z,21.90
2023-05-08T14:32:58.221Z,22.00
2023-05-08T14:34:00.832Z,21.90